Darstellungsparameter: Aktuell verwendete Einstellungen:
Skalierung der Graphiken ... ?
xyx+y,   Skalierungsfaktor:      Skalierung: Modus: x, Faktor: 1
Darstellungszeitraum ... ?
Vom - - bis: - -   Zeitraum: 01.05.2019 - 02.05.2019
Min/Max/Avg-Anzeige ... ?
Zeige MMA aktuell
Zeige MMA Monat
Zeige MMA alles
Zeige --A aktuell
Zeige --A Monat
Zeige --A alles
Keine MMA-Anzeige
MMA:
Average (ber die Originaldaten)
MMA-Basis: 01.05.2019 - 02.05.2019
Quicknavigation für Darstellung... ?
Tage:      1T, 2T, 3T, 5T -1T -2T -3T -5T +1T +2T +3T +5T
Wochen: 1W, 2W, 3W -1W -2W -3W +1W +2W +3W
Monate: 1M, 3M, 6M -1M -3M -6M +1M +3M +6M
Jahre:    1J, 3J, 5J, 10J -1J -3J -5J -10J +1J +3J +5J +10J
Nutze für die Darstellung ... ?
Originaldaten oder Mittelwerte auf ...
Stundenbasis Tagesbasis Wochenbasis
Monatsbasis Jahresbasis      Datenbasis: Original-Daten
Darstellen als:
Statistik (Auto) Statistik J:M      Darstellung:
Zur Graphik,    zurück zur Übersicht aller Sensoren.
 
Tabellarische Datenbersicht: ?
 
Sensor: Nr:Datum:Temp:Abs-Feuchte:Windchill:Wind:
Aussen-T/F 1 01-05-2019 00:00:00 11.6 C 8.52 g/m*3 11.6 C 0 km/h
2 01-05-2019 00:05:00 11.4 C 8.42 g/m*3 11.4 C 0 km/h
3 01-05-2019 00:10:00 11.3 C 8.47 g/m*3 11.3 C 0 km/h
4 01-05-2019 00:15:00 11.3 C 8.47 g/m*3 11.3 C 0 km/h
5 01-05-2019 00:20:00 11.3 C 8.57 g/m*3 11.3 C 0 km/h
6 01-05-2019 00:25:00 11.2 C 8.41 g/m*3 11.2 C 1.6 km/h
7 01-05-2019 00:30:00 11.2 C 8.51 g/m*3 11.2 C 4.8 km/h
8 01-05-2019 00:35:00 11.3 C 8.47 g/m*3 11.3 C 3.2 km/h
9 01-05-2019 00:40:00 11.3 C 8.47 g/m*3 11.3 C 0 km/h
10 01-05-2019 00:45:00 11.2 C 8.41 g/m*3 11.2 C 0 km/h
11 01-05-2019 00:50:00 11.1 C 8.36 g/m*3 11.1 C 0 km/h
12 01-05-2019 00:55:00 10.9 C 8.36 g/m*3 10.9 C 0 km/h
13 01-05-2019 01:00:00 10.7 C 8.25 g/m*3 10.7 C 0 km/h
14 01-05-2019 01:05:00 10.6 C 8.3 g/m*3 10.6 C 0 km/h
15 01-05-2019 01:10:00 10.6 C 8.3 g/m*3 10.6 C 3.2 km/h
16 01-05-2019 01:15:00 10.6 C 8.3 g/m*3 10.6 C 3.2 km/h
17 01-05-2019 01:20:00 10.6 C 8.3 g/m*3 10.6 C 0 km/h
18 01-05-2019 01:25:00 10.6 C 8.3 g/m*3 10.6 C 0 km/h
19 01-05-2019 01:30:00 10.3 C 8.14 g/m*3 10.3 C 0 km/h
20 01-05-2019 01:35:00 10.2 C 8.18 g/m*3 10.2 C 0 km/h
21 01-05-2019 01:40:00 10.2 C 8.18 g/m*3 10.2 C 0 km/h
22 01-05-2019 01:45:00 10.1 C 8.13 g/m*3 10.1 C 1.6 km/h
23 01-05-2019 01:50:00 10 C 8.17 g/m*3 10 C 0 km/h
24 01-05-2019 01:55:00 9.9 C 8.12 g/m*3 9.9 C 0 km/h
25 01-05-2019 02:00:00 9.8 C 8.07 g/m*3 9.8 C 0 km/h
Sensor: Nr:Datum:Temp:Abs-Feuchte:Windchill:Wind:
Aussen-T/F 26 01-05-2019 02:05:00 9.7 C 8.02 g/m*3 9.7 C 0 km/h
27 01-05-2019 02:10:00 9.6 C 7.97 g/m*3 9.6 C 0 km/h
28 01-05-2019 02:15:00 9.5 C 7.92 g/m*3 9.5 C 0 km/h
29 01-05-2019 02:20:00 9.4 C 7.96 g/m*3 9.4 C 0 km/h
30 01-05-2019 02:25:00 9.3 C 7.91 g/m*3 9.3 C 0 km/h
31 01-05-2019 02:30:00 9.2 C 7.86 g/m*3 9.2 C 0 km/h
32 01-05-2019 02:35:00 9.1 C 7.9 g/m*3 9.1 C 0 km/h
33 01-05-2019 02:40:00 9 C 7.85 g/m*3 9 C 0 km/h
34 01-05-2019 02:45:00 8.9 C 7.8 g/m*3 8.9 C 0 km/h
35 01-05-2019 02:50:00 8.9 C 7.88 g/m*3 8.9 C 0 km/h
36 01-05-2019 02:55:00 8.8 C 7.83 g/m*3 8.8 C 0 km/h
37 01-05-2019 03:00:00 8.8 C 7.83 g/m*3 8.8 C 0 km/h
38 01-05-2019 03:05:00 8.7 C 7.78 g/m*3 8.7 C 0 km/h
39 01-05-2019 03:10:00 8.6 C 7.73 g/m*3 8.6 C 0 km/h
40 01-05-2019 03:15:00 8.5 C 7.68 g/m*3 8.5 C 0 km/h
41 01-05-2019 03:20:00 8.5 C 7.77 g/m*3 8.5 C 0 km/h
42 01-05-2019 03:25:00 8.4 C 7.72 g/m*3 8.4 C 0 km/h
43 01-05-2019 03:30:00 8.4 C 7.72 g/m*3 8.4 C 0 km/h
44 01-05-2019 03:35:00 8.4 C 7.72 g/m*3 8.4 C 0 km/h
45 01-05-2019 03:40:00 8.3 C 7.67 g/m*3 8.3 C 1.6 km/h
46 01-05-2019 03:45:00 8.3 C 7.67 g/m*3 8.3 C 0 km/h
47 01-05-2019 03:50:00 8.3 C 7.75 g/m*3 8.3 C 0 km/h
48 01-05-2019 03:55:00 8.3 C 7.75 g/m*3 8.3 C 0 km/h
49 01-05-2019 04:00:00 8.3 C 7.75 g/m*3 8.3 C 0 km/h
50 01-05-2019 04:05:00 8.3 C 7.75 g/m*3 8.3 C 0 km/h
Sensor: Nr:Datum:Temp:Abs-Feuchte:Windchill:Wind:
Aussen-T/F 51 01-05-2019 04:10:00 8.3 C 7.75 g/m*3 8.3 C 0 km/h
52 01-05-2019 04:15:00 8.3 C 7.75 g/m*3 8.3 C 1.6 km/h
53 01-05-2019 04:20:00 8.3 C 7.75 g/m*3 8.3 C 3.2 km/h
54 01-05-2019 04:25:00 8.2 C 7.7 g/m*3 8.2 C 0 km/h
55 01-05-2019 04:30:00 8.1 C 7.66 g/m*3 8.1 C 0 km/h
56 01-05-2019 04:35:00 8 C 7.61 g/m*3 8 C 0 km/h
57 01-05-2019 04:40:00 7.9 C 7.56 g/m*3 7.9 C 0 km/h
58 01-05-2019 04:45:00 7.8 C 7.43 g/m*3 7.8 C 0 km/h
59 01-05-2019 04:50:00 7.7 C 7.38 g/m*3 7.7 C 0 km/h
60 01-05-2019 04:55:00 7.7 C 7.38 g/m*3 7.7 C 0 km/h
61 01-05-2019 05:00:00 7.6 C 7.41 g/m*3 7.6 C 0 km/h
62 01-05-2019 05:05:00 7.4 C 7.32 g/m*3 7.4 C 0 km/h
63 01-05-2019 05:10:00 7.3 C 7.27 g/m*3 7.3 C 0 km/h
64 01-05-2019 05:15:00 7.2 C 7.22 g/m*3 7.2 C 0 km/h
65 01-05-2019 05:20:00 7.1 C 7.18 g/m*3 7.1 C 0 km/h
66 01-05-2019 05:25:00 6.9 C 7.08 g/m*3 6.9 C 0 km/h
67 01-05-2019 05:30:00 6.8 C 7.04 g/m*3 6.8 C 0 km/h
68 01-05-2019 05:35:00 6.7 C 6.99 g/m*3 6.7 C 0 km/h
69 01-05-2019 05:40:00 6.7 C 6.99 g/m*3 6.7 C 0 km/h
70 01-05-2019 05:45:00 6.6 C 7.02 g/m*3 6.6 C 0 km/h
71 01-05-2019 05:50:00 6.6 C 7.02 g/m*3 6.6 C 0 km/h
72 01-05-2019 05:55:00 6.6 C 7.02 g/m*3 6.6 C 0 km/h
73 01-05-2019 06:00:00 6.4 C 6.93 g/m*3 6.4 C 0 km/h
74 01-05-2019 06:05:00 6.3 C 6.88 g/m*3 6.3 C 0 km/h
75 01-05-2019 06:10:00 6.3 C 6.88 g/m*3 6.3 C 0 km/h
Sensor: Nr:Datum:Temp:Abs-Feuchte:Windchill:Wind:
Aussen-T/F 76 01-05-2019 06:15:00 6.3 C 6.88 g/m*3 6.3 C 0 km/h
77 01-05-2019 06:20:00 6.3 C 6.96 g/m*3 6.3 C 0 km/h
78 01-05-2019 06:25:00 6.2 C 6.84 g/m*3 6.2 C 0 km/h
79 01-05-2019 06:30:00 6.2 C 6.91 g/m*3 6.2 C 1.6 km/h
80 01-05-2019 06:35:00 6.3 C 6.96 g/m*3 6.3 C 0 km/h
81 01-05-2019 06:40:00 6.3 C 6.96 g/m*3 6.3 C 0 km/h
82 01-05-2019 06:45:00 6.3 C 6.96 g/m*3 6.3 C 0 km/h
83 01-05-2019 06:50:00 6.2 C 6.91 g/m*3 6.2 C 0 km/h
84 01-05-2019 06:55:00 6.2 C 6.91 g/m*3 6.2 C 0 km/h
85 01-05-2019 07:00:00 6.3 C 6.96 g/m*3 6.3 C 0 km/h
86 01-05-2019 07:05:00 6.3 C 7.03 g/m*3 6.3 C 0 km/h
87 01-05-2019 07:10:00 6.4 C 7.08 g/m*3 6.4 C 0 km/h
88 01-05-2019 07:15:00 6.6 C 7.17 g/m*3 6.6 C 0 km/h
89 01-05-2019 07:20:00 6.7 C 7.22 g/m*3 6.7 C 0 km/h
90 01-05-2019 07:25:00 6.8 C 7.27 g/m*3 6.8 C 0 km/h
91 01-05-2019 07:30:00 6.8 C 7.27 g/m*3 6.8 C 1.6 km/h
92 01-05-2019 07:35:00 6.9 C 7.31 g/m*3 6.9 C 1.6 km/h
93 01-05-2019 07:40:00 7.1 C 7.41 g/m*3 7.1 C 1.6 km/h
94 01-05-2019 07:45:00 7.1 C 7.41 g/m*3 7.1 C 0 km/h
95 01-05-2019 07:50:00 7.2 C 7.46 g/m*3 7.2 C 1.6 km/h
96 01-05-2019 07:55:00 7.3 C 7.51 g/m*3 7.3 C 0 km/h
97 01-05-2019 08:00:00 7.3 C 7.51 g/m*3 7.3 C 0 km/h
98 01-05-2019 08:05:00 7.5 C 7.6 g/m*3 7.5 C 1.6 km/h
99 01-05-2019 08:10:00 7.5 C 7.6 g/m*3 7.5 C 3.2 km/h
100 01-05-2019 08:15:00 7.6 C 7.65 g/m*3 7.6 C 0 km/h
Sensor: Nr:Datum:Temp:Abs-Feuchte:Windchill:Wind:
Aussen-T/F 101 01-05-2019 08:20:00 7.7 C 7.7 g/m*3 7.7 C 0 km/h
102 01-05-2019 08:25:00 7.9 C 7.8 g/m*3 7.9 C 0 km/h
103 01-05-2019 08:30:00 8.1 C 7.9 g/m*3 8.1 C 0 km/h
104 01-05-2019 08:35:00 8.1 C 7.9 g/m*3 8.1 C 1.6 km/h
105 01-05-2019 08:40:00 8.2 C 7.96 g/m*3 8.2 C 0 km/h
106 01-05-2019 08:45:00 8.2 C 7.96 g/m*3 8.2 C 1.6 km/h
107 01-05-2019 08:50:00 8.3 C 7.92 g/m*3 8.3 C 1.6 km/h
108 01-05-2019 08:55:00 8.4 C 7.97 g/m*3 8.4 C 0 km/h
109 01-05-2019 09:00:00 8.4 C 7.97 g/m*3 8.4 C 0 km/h
110 01-05-2019 09:05:00 8.6 C 8.08 g/m*3 8.6 C 0 km/h
111 01-05-2019 09:10:00 8.6 C 8.08 g/m*3 8.6 C 3.2 km/h
112 01-05-2019 09:15:00 8.7 C 8.04 g/m*3 8.7 C 3.2 km/h
113 01-05-2019 09:20:00 8.7 C 8.04 g/m*3 8.7 C 1.6 km/h
114 01-05-2019 09:25:00 8.8 C 8.09 g/m*3 8.8 C 0 km/h
115 01-05-2019 09:30:00 8.9 C 8.15 g/m*3 8.9 C 1.6 km/h
116 01-05-2019 09:35:00 9.1 C 8.25 g/m*3 9.1 C 1.6 km/h
117 01-05-2019 09:40:00 9.1 C 8.16 g/m*3 9.1 C 3.2 km/h
118 01-05-2019 09:45:00 9.2 C 8.22 g/m*3 9.2 C 3.2 km/h
119 01-05-2019 09:50:00 9.2 C 8.22 g/m*3 9.2 C 0 km/h
120 01-05-2019 09:55:00 9.4 C 8.32 g/m*3 9.4 C 0 km/h
121 01-05-2019 10:00:00 9.6 C 8.43 g/m*3 9.6 C 0 km/h
122 01-05-2019 10:05:00 9.7 C 8.48 g/m*3 9.7 C 3.2 km/h
123 01-05-2019 10:10:00 9.9 C 8.59 g/m*3 9.9 C 1.6 km/h
124 01-05-2019 10:15:00 10.1 C 8.51 g/m*3 10.1 C 3.2 km/h
125 01-05-2019 10:20:00 10 C 8.36 g/m*3 10 C 1.6 km/h
Sensor: Nr:Datum:Temp:Abs-Feuchte:Windchill:Wind:
Aussen-T/F 126 01-05-2019 10:25:00 10 C 8.46 g/m*3 10 C 0 km/h
127 01-05-2019 10:30:00 10.1 C 8.51 g/m*3 10.1 C 1.6 km/h
128 01-05-2019 10:35:00 10.3 C 8.52 g/m*3 9.72 C 6.4 km/h
129 01-05-2019 10:40:00 10.4 C 8.58 g/m*3 9.83 C 6.4 km/h
130 01-05-2019 10:45:00 10.4 C 8.48 g/m*3 9.83 C 6.4 km/h
131 01-05-2019 10:50:00 10.4 C 8.48 g/m*3 10.4 C 1.6 km/h
132 01-05-2019 10:55:00 10.5 C 8.53 g/m*3 10.5 C 4.8 km/h
133 01-05-2019 11:00:00 10.5 C 8.53 g/m*3 10.5 C 1.6 km/h
134 01-05-2019 11:05:00 10.6 C 8.59 g/m*3 10.6 C 1.6 km/h
135 01-05-2019 11:10:00 10.7 C 8.64 g/m*3 10.7 C 4.8 km/h
136 01-05-2019 11:15:00 10.8 C 8.6 g/m*3 10.8 C 3.2 km/h
137 01-05-2019 11:20:00 10.9 C 8.65 g/m*3 10.9 C 3.2 km/h
138 01-05-2019 11:25:00 11.2 C 8.82 g/m*3 11.2 C 1.6 km/h
139 01-05-2019 11:30:00 11.4 C 8.93 g/m*3 11.4 C 1.6 km/h
140 01-05-2019 11:35:00 11.7 C 8.99 g/m*3 11.7 C 1.6 km/h
141 01-05-2019 11:40:00 11.9 C 9.11 g/m*3 11.9 C 3.2 km/h
142 01-05-2019 11:45:00 12.2 C 9.17 g/m*3 12.2 C 4.8 km/h
143 01-05-2019 11:50:00 12.4 C 9.18 g/m*3 12.4 C 4.8 km/h
144 01-05-2019 11:55:00 12.6 C 9.07 g/m*3 12.6 C 4.8 km/h
145 01-05-2019 12:00:00 12.7 C 9.24 g/m*3 12.7 C 3.2 km/h
146 01-05-2019 12:05:00 12.9 C 9.24 g/m*3 12.9 C 6.4 km/h
147 01-05-2019 12:10:00 13.2 C 9.42 g/m*3 13.2 C 1.6 km/h
148 01-05-2019 12:15:00 13.3 C 9.36 g/m*3 13.3 C 3.2 km/h
149 01-05-2019 12:20:00 13.6 C 9.42 g/m*3 13.6 C 1.6 km/h
150 01-05-2019 12:25:00 13.7 C 9.35 g/m*3 13.7 C 6.4 km/h
Sensor: Nr:Datum:Temp:Abs-Feuchte:Windchill:Wind:
Aussen-T/F 151 01-05-2019 12:30:00 13.9 C 9.47 g/m*3 13.9 C 3.2 km/h
152 01-05-2019 12:35:00 14.2 C 9.52 g/m*3 14.2 C 6.4 km/h
153 01-05-2019 12:40:00 14.3 C 9.46 g/m*3 14.3 C 8.1 km/h
154 01-05-2019 12:45:00 14.5 C 9.58 g/m*3 14.5 C 4.8 km/h
155 01-05-2019 12:50:00 14.6 C 9.51 g/m*3 14.6 C 4.8 km/h
156 01-05-2019 12:55:00 14.8 C 9.5 g/m*3 14.8 C 3.2 km/h
157 01-05-2019 13:00:00 15 C 9.62 g/m*3 15 C 3.2 km/h
158 01-05-2019 13:05:00 15.3 C 9.53 g/m*3 15.3 C 8.1 km/h
159 01-05-2019 13:10:00 15.5 C 9.52 g/m*3 15.5 C 8.1 km/h
160 01-05-2019 13:15:00 15.7 C 9.5 g/m*3 15.7 C 8.1 km/h
161 01-05-2019 13:20:00 15.8 C 9.42 g/m*3 15.8 C 8.1 km/h
162 01-05-2019 13:25:00 15.9 C 9.07 g/m*3 15.9 C 8.1 km/h
163 01-05-2019 13:30:00 16.2 C 9.1 g/m*3 16.2 C 8.1 km/h
164 01-05-2019 13:35:00 16.3 C 8.6 g/m*3 16.3 C 4.8 km/h
165 01-05-2019 13:40:00 16.5 C 8.71 g/m*3 16.5 C 11.3 km/h
166 01-05-2019 13:45:00 16.6 C 8.19 g/m*3 16.6 C 8.1 km/h
167 01-05-2019 13:50:00 16.8 C 8.72 g/m*3 16.8 C 8.1 km/h
168 01-05-2019 13:55:00 16.8 C 8.58 g/m*3 16.8 C 6.4 km/h
169 01-05-2019 14:00:00 16.9 C 8.63 g/m*3 16.9 C 6.4 km/h
170 01-05-2019 14:05:00 17.1 C 8.59 g/m*3 17.1 C 9.7 km/h
171 01-05-2019 14:10:00 17.2 C 8.49 g/m*3 17.2 C 9.7 km/h
172 01-05-2019 14:15:00 17.3 C 8.25 g/m*3 17.3 C 11.3 km/h
173 01-05-2019 14:20:00 17.4 C 8.6 g/m*3 17.4 C 8.1 km/h
174 01-05-2019 14:25:00 17.6 C 8.4 g/m*3 17.6 C 11.3 km/h
175 01-05-2019 14:30:00 17.8 C 8.04 g/m*3 17.8 C 9.7 km/h
Sensor: Nr:Datum:Temp:Abs-Feuchte:Windchill:Wind:
Aussen-T/F 176 01-05-2019 14:35:00 17.9 C 7.94 g/m*3 17.9 C 9.7 km/h
177 01-05-2019 14:40:00 18.1 C 7.88 g/m*3 18.1 C 8.1 km/h
178 01-05-2019 14:45:00 18.3 C 7.97 g/m*3 18.3 C 9.7 km/h
179 01-05-2019 14:50:00 18.3 C 8.29 g/m*3 18.3 C 8.1 km/h
180 01-05-2019 14:55:00 18.4 C 8.49 g/m*3 18.4 C 8.1 km/h
181 01-05-2019 15:00:00 18.5 C 7.91 g/m*3 18.5 C 8.1 km/h
182 01-05-2019 15:05:00 18.6 C 8.12 g/m*3 18.6 C 9.7 km/h
183 01-05-2019 15:10:00 18.7 C 8.49 g/m*3 18.7 C 8.1 km/h
184 01-05-2019 15:15:00 18.9 C 7.94 g/m*3 18.9 C 14.5 km/h
185 01-05-2019 15:20:00 18.9 C 8.1 g/m*3 18.9 C 14.5 km/h
186 01-05-2019 15:25:00 19.1 C 8.03 g/m*3 19.1 C 6.4 km/h
187 01-05-2019 15:30:00 19.4 C 8.18 g/m*3 19.4 C 9.7 km/h
188 01-05-2019 15:35:00 19.6 C 7.77 g/m*3 19.6 C 8.1 km/h
189 01-05-2019 15:40:00 19.8 C 8.37 g/m*3 19.8 C 6.4 km/h
190 01-05-2019 15:45:00 20.1 C 8 g/m*3 20.1 C 6.4 km/h
191 01-05-2019 15:50:00 20.2 C 8.04 g/m*3 20.2 C 11.3 km/h
192 01-05-2019 15:55:00 20.4 C 8.31 g/m*3 20.4 C 9.7 km/h
193 01-05-2019 16:00:00 20.6 C 7.87 g/m*3 20.6 C 8.1 km/h
194 01-05-2019 16:05:00 20.8 C 8.33 g/m*3 20.8 C 4.8 km/h
195 01-05-2019 16:10:00 21.1 C 7.92 g/m*3 21.1 C 8.1 km/h
196 01-05-2019 16:15:00 21 C 8.24 g/m*3 21 C 8.1 km/h
197 01-05-2019 16:20:00 21.3 C 8.02 g/m*3 21.3 C 3.2 km/h
198 01-05-2019 16:25:00 21.3 C 8.02 g/m*3 21.3 C 3.2 km/h
199 01-05-2019 16:30:00 21.6 C 8.16 g/m*3 21.6 C 9.7 km/h
200 01-05-2019 16:35:00 21.7 C 8.2 g/m*3 21.7 C 9.7 km/h
Sensor: Nr:Datum:Temp:Abs-Feuchte:Windchill:Wind:
Aussen-T/F 201 01-05-2019 16:40:00 21.8 C 8.25 g/m*3 21.8 C 9.7 km/h
202 01-05-2019 16:45:00 21.6 C 8.35 g/m*3 21.6 C 8.1 km/h
203 01-05-2019 16:50:00 21.4 C 8.44 g/m*3 21.4 C 8.1 km/h
204 01-05-2019 16:55:00 21.6 C 8.35 g/m*3 21.6 C 8.1 km/h
205 01-05-2019 17:00:00 21.7 C 8.58 g/m*3 21.7 C 4.8 km/h
206 01-05-2019 17:05:00 21.7 C 8.2 g/m*3 21.7 C 9.7 km/h
207 01-05-2019 17:10:00 21.7 C 8.58 g/m*3 21.7 C 9.7 km/h
208 01-05-2019 17:15:00 21.7 C 8.01 g/m*3 21.7 C 6.4 km/h
209 01-05-2019 17:20:00 21.5 C 8.3 g/m*3 21.5 C 8.1 km/h
210 01-05-2019 17:25:00 21.6 C 8.16 g/m*3 21.6 C 4.8 km/h
211 01-05-2019 17:30:00 21.5 C 8.11 g/m*3 21.5 C 9.7 km/h
212 01-05-2019 17:35:00 21.3 C 8.39 g/m*3 21.3 C 11.3 km/h
213 01-05-2019 17:40:00 21.3 C 8.39 g/m*3 21.3 C 9.7 km/h
214 01-05-2019 17:45:00 21.3 C 8.57 g/m*3 21.3 C 6.4 km/h
215 01-05-2019 17:50:00 21.3 C 8.39 g/m*3 21.3 C 6.4 km/h
216 01-05-2019 17:55:00 21.2 C 8.34 g/m*3 21.2 C 9.7 km/h
217 01-05-2019 18:00:00 20.9 C 8.92 g/m*3 20.9 C 12.9 km/h
218 01-05-2019 18:05:00 20.8 C 9.23 g/m*3 20.8 C 11.3 km/h
219 01-05-2019 18:10:00 20.8 C 9.05 g/m*3 20.8 C 9.7 km/h
220 01-05-2019 18:15:00 20.8 C 9.42 g/m*3 20.8 C 8.1 km/h
221 01-05-2019 18:20:00 20.7 C 9.18 g/m*3 20.7 C 12.9 km/h
222 01-05-2019 18:25:00 20.6 C 9.31 g/m*3 20.6 C 8.1 km/h
223 01-05-2019 18:30:00 20.4 C 9.2 g/m*3 20.4 C 11.3 km/h
224 01-05-2019 18:35:00 20.2 C 9.44 g/m*3 20.2 C 9.7 km/h
225 01-05-2019 18:40:00 20 C 9.33 g/m*3 20 C 9.7 km/h
Sensor: Nr:Datum:Temp:Abs-Feuchte:Windchill:Wind:
Aussen-T/F 226 01-05-2019 18:45:00 19.7 C 9.17 g/m*3 19.7 C 12.9 km/h
227 01-05-2019 18:50:00 19.6 C 9.45 g/m*3 19.6 C 6.4 km/h
228 01-05-2019 18:55:00 19.4 C 9.18 g/m*3 19.4 C 9.7 km/h
229 01-05-2019 19:00:00 19.4 C 9.34 g/m*3 19.4 C 9.7 km/h
230 01-05-2019 19:05:00 19.2 C 9.23 g/m*3 19.2 C 11.3 km/h
231 01-05-2019 19:10:00 19 C 9.29 g/m*3 19 C 4.8 km/h
232 01-05-2019 19:15:00 18.8 C 9.18 g/m*3 18.8 C 9.7 km/h
233 01-05-2019 19:20:00 18.6 C 9.23 g/m*3 18.6 C 9.7 km/h
234 01-05-2019 19:25:00 18.3 C 9.07 g/m*3 18.3 C 9.7 km/h
235 01-05-2019 19:30:00 18 C 8.91 g/m*3 18 C 8.1 km/h
236 01-05-2019 19:35:00 17.7 C 8.9 g/m*3 17.7 C 11.3 km/h
237 01-05-2019 19:40:00 17.6 C 9 g/m*3 17.6 C 4.8 km/h
238 01-05-2019 19:45:00 17.5 C 8.95 g/m*3 17.5 C 3.2 km/h
239 01-05-2019 19:50:00 17.3 C 8.69 g/m*3 17.3 C 4.8 km/h
240 01-05-2019 19:55:00 17.2 C 8.93 g/m*3 17.2 C 4.8 km/h
241 01-05-2019 20:00:00 17.1 C 8.59 g/m*3 17.1 C 11.3 km/h
242 01-05-2019 20:05:00 16.9 C 8.63 g/m*3 16.9 C 3.2 km/h
243 01-05-2019 20:10:00 16.7 C 8.95 g/m*3 16.7 C 4.8 km/h
244 01-05-2019 20:15:00 16.4 C 8.65 g/m*3 16.4 C 6.4 km/h
245 01-05-2019 20:20:00 16.2 C 8.55 g/m*3 16.2 C 4.8 km/h
246 01-05-2019 20:25:00 15.8 C 8.48 g/m*3 15.8 C 3.2 km/h
247 01-05-2019 20:30:00 15.5 C 8.46 g/m*3 15.5 C 0 km/h
248 01-05-2019 20:35:00 15.2 C 8.31 g/m*3 15.2 C 1.6 km/h
249 01-05-2019 20:40:00 14.9 C 8.28 g/m*3 14.9 C 0 km/h
250 01-05-2019 20:45:00 14.7 C 8.31 g/m*3 14.7 C 0 km/h
Sensor: Nr:Datum:Temp:Abs-Feuchte:Windchill:Wind:
Aussen-T/F 251 01-05-2019 20:50:00 14.3 C 7.99 g/m*3 14.3 C 4.8 km/h
252 01-05-2019 20:55:00 14.2 C 8.18 g/m*3 14.2 C 1.6 km/h
253 01-05-2019 21:00:00 13.9 C 8.27 g/m*3 13.9 C 0 km/h
254 01-05-2019 21:05:00 13.6 C 8.36 g/m*3 13.6 C 4.8 km/h
255 01-05-2019 21:10:00 13.4 C 8.49 g/m*3 13.4 C 4.8 km/h
256 01-05-2019 21:15:00 13.3 C 8.43 g/m*3 13.3 C 4.8 km/h
257 01-05-2019 21:20:00 13.3 C 8.55 g/m*3 13.3 C 6.4 km/h
258 01-05-2019 21:25:00 13.4 C 8.6 g/m*3 13.4 C 8.1 km/h
259 01-05-2019 21:30:00 13.6 C 8.71 g/m*3 13.6 C 8.1 km/h
260 01-05-2019 21:35:00 13.6 C 8.71 g/m*3 13.6 C 3.2 km/h
261 01-05-2019 21:40:00 13.5 C 8.66 g/m*3 13.5 C 8.1 km/h
262 01-05-2019 21:45:00 13.6 C 8.71 g/m*3 13.6 C 8.1 km/h
263 01-05-2019 21:50:00 13.6 C 8.71 g/m*3 13.6 C 6.4 km/h
264 01-05-2019 21:55:00 13.6 C 8.83 g/m*3 13.6 C 8.1 km/h
265 01-05-2019 22:00:00 13.6 C 8.83 g/m*3 13.6 C 4.8 km/h
266 01-05-2019 22:05:00 13.4 C 8.72 g/m*3 13.4 C 8.1 km/h
267 01-05-2019 22:10:00 13.4 C 8.72 g/m*3 13.4 C 9.7 km/h
268 01-05-2019 22:15:00 13.4 C 8.72 g/m*3 13.4 C 4.8 km/h
269 01-05-2019 22:20:00 13.3 C 8.78 g/m*3 13.3 C 1.6 km/h
270 01-05-2019 22:25:00 13.1 C 8.79 g/m*3 13.1 C 0 km/h
271 01-05-2019 22:30:00 12.8 C 8.74 g/m*3 12.8 C 3.2 km/h
272 01-05-2019 22:35:00 12.5 C 8.69 g/m*3 12.5 C 1.6 km/h
273 01-05-2019 22:40:00 12.3 C 8.69 g/m*3 12.3 C 0 km/h
274 01-05-2019 22:45:00 12 C 8.63 g/m*3 12 C 0 km/h
275 01-05-2019 22:50:00 11.8 C 8.63 g/m*3 11.8 C 0 km/h
Sensor: Nr:Datum:Temp:Abs-Feuchte:Windchill:Wind:
Aussen-T/F 276 01-05-2019 22:55:00 11.6 C 8.52 g/m*3 11.6 C 0 km/h
277 01-05-2019 23:00:00 11.4 C 8.52 g/m*3 11.4 C 0 km/h
278 01-05-2019 23:05:00 11.3 C 8.57 g/m*3 11.3 C 0 km/h
279 01-05-2019 23:10:00 11.2 C 8.51 g/m*3 11.2 C 0 km/h
280 01-05-2019 23:15:00 11.1 C 8.56 g/m*3 11.1 C 0 km/h
281 01-05-2019 23:20:00 10.9 C 8.45 g/m*3 10.9 C 0 km/h
282 01-05-2019 23:25:00 10.8 C 8.4 g/m*3 10.8 C 0 km/h
283 01-05-2019 23:30:00 10.7 C 8.45 g/m*3 10.7 C 0 km/h
284 01-05-2019 23:35:00 10.6 C 8.39 g/m*3 10.6 C 0 km/h
285 01-05-2019 23:40:00 10.6 C 8.39 g/m*3 10.6 C 0 km/h
286 01-05-2019 23:45:00 10.4 C 8.38 g/m*3 10.4 C 0 km/h
287 01-05-2019 23:50:00 10.4 C 8.38 g/m*3 10.4 C 0 km/h
288 01-05-2019 23:55:00 10.3 C 8.33 g/m*3 10.3 C 0 km/h
289 02-05-2019 00:00:00 10.3 C 8.33 g/m*3 10.3 C 0 km/h
290 02-05-2019 00:05:00 10.2 C 8.28 g/m*3 10.2 C 0 km/h
291 02-05-2019 00:10:00 10.2 C 8.37 g/m*3 10.2 C 0 km/h
292 02-05-2019 00:15:00 10.2 C 8.37 g/m*3 10.2 C 0 km/h
293 02-05-2019 00:20:00 10.1 C 8.32 g/m*3 10.1 C 0 km/h
294 02-05-2019 00:25:00 10 C 8.27 g/m*3 10 C 0 km/h
295 02-05-2019 00:30:00 9.9 C 8.31 g/m*3 9.9 C 0 km/h
296 02-05-2019 00:35:00 9.9 C 8.31 g/m*3 9.9 C 0 km/h
297 02-05-2019 00:40:00 9.8 C 8.26 g/m*3 9.8 C 0 km/h
298 02-05-2019 00:45:00 9.8 C 8.26 g/m*3 9.8 C 0 km/h
299 02-05-2019 00:50:00 9.7 C 8.2 g/m*3 9.7 C 0 km/h
300 02-05-2019 00:55:00 9.7 C 8.2 g/m*3 9.7 C 0 km/h
Sensor: Nr:Datum:Temp:Abs-Feuchte:Windchill:Wind:
Aussen-T/F 301 02-05-2019 01:00:00 9.6 C 8.15 g/m*3 9.6 C 0 km/h
302 02-05-2019 01:05:00 9.5 C 8.1 g/m*3 9.5 C 0 km/h
303 02-05-2019 01:10:00 9.3 C 8.09 g/m*3 9.3 C 0 km/h
304 02-05-2019 01:15:00 9.2 C 7.95 g/m*3 9.2 C 0 km/h
305 02-05-2019 01:20:00 9.1 C 7.99 g/m*3 9.1 C 0 km/h
306 02-05-2019 01:25:00 8.9 C 7.88 g/m*3 8.9 C 0 km/h
307 02-05-2019 01:30:00 8.8 C 7.83 g/m*3 8.8 C 0 km/h
308 02-05-2019 01:35:00 8.7 C 7.87 g/m*3 8.7 C 0 km/h
309 02-05-2019 01:40:00 8.7 C 7.87 g/m*3 8.7 C 0 km/h
310 02-05-2019 01:45:00 8.6 C 7.91 g/m*3 8.6 C 0 km/h
311 02-05-2019 01:50:00 8.6 C 7.91 g/m*3 8.6 C 0 km/h
312 02-05-2019 01:55:00 8.6 C 7.91 g/m*3 8.6 C 0 km/h
313 02-05-2019 02:00:00 8.4 C 7.8 g/m*3 8.4 C 0 km/h
314 02-05-2019 02:05:00 8.4 C 7.8 g/m*3 8.4 C 0 km/h
315 02-05-2019 02:10:00 8.3 C 7.75 g/m*3 8.3 C 0 km/h
316 02-05-2019 02:15:00 8.3 C 7.75 g/m*3 8.3 C 0 km/h
317 02-05-2019 02:20:00 8.3 C 7.84 g/m*3 8.3 C 0 km/h
318 02-05-2019 02:25:00 8.2 C 7.79 g/m*3 8.2 C 0 km/h
319 02-05-2019 02:30:00 8.2 C 7.79 g/m*3 8.2 C 0 km/h
320 02-05-2019 02:35:00 8.2 C 7.79 g/m*3 8.2 C 0 km/h
321 02-05-2019 02:40:00 8.2 C 7.79 g/m*3 8.2 C 0 km/h
322 02-05-2019 02:45:00 8.1 C 7.74 g/m*3 8.1 C 0 km/h
323 02-05-2019 02:50:00 8.1 C 7.74 g/m*3 8.1 C 0 km/h
324 02-05-2019 02:55:00 8.1 C 7.82 g/m*3 8.1 C 0 km/h
325 02-05-2019 03:00:00 8 C 7.69 g/m*3 8 C 0 km/h
Sensor: Nr:Datum:Temp:Abs-Feuchte:Windchill:Wind:
Aussen-T/F 326 02-05-2019 03:05:00 7.9 C 7.72 g/m*3 7.9 C 0 km/h
327 02-05-2019 03:10:00 7.9 C 7.64 g/m*3 7.9 C 0 km/h
328 02-05-2019 03:15:00 7.9 C 7.64 g/m*3 7.9 C 0 km/h
329 02-05-2019 03:20:00 7.9 C 7.72 g/m*3 7.9 C 0 km/h
330 02-05-2019 03:25:00 7.8 C 7.67 g/m*3 7.8 C 0 km/h
331 02-05-2019 03:30:00 7.8 C 7.67 g/m*3 7.8 C 0 km/h
332 02-05-2019 03:35:00 7.7 C 7.62 g/m*3 7.7 C 0 km/h
333 02-05-2019 03:40:00 7.6 C 7.49 g/m*3 7.6 C 0 km/h
334 02-05-2019 03:45:00 7.5 C 7.44 g/m*3 7.5 C 0 km/h
335 02-05-2019 03:50:00 7.4 C 7.48 g/m*3 7.4 C 0 km/h
336 02-05-2019 03:55:00 7.4 C 7.48 g/m*3 7.4 C 0 km/h
337 02-05-2019 04:00:00 7.3 C 7.43 g/m*3 7.3 C 0 km/h
338 02-05-2019 04:05:00 7.3 C 7.43 g/m*3 7.3 C 0 km/h
339 02-05-2019 04:10:00 7.2 C 7.38 g/m*3 7.2 C 0 km/h
340 02-05-2019 04:15:00 7.2 C 7.38 g/m*3 7.2 C 0 km/h
341 02-05-2019 04:20:00 7.1 C 7.33 g/m*3 7.1 C 0 km/h
342 02-05-2019 04:25:00 7.1 C 7.33 g/m*3 7.1 C 0 km/h
343 02-05-2019 04:30:00 7 C 7.28 g/m*3 7 C 0 km/h
344 02-05-2019 04:35:00 6.9 C 7.24 g/m*3 6.9 C 0 km/h
345 02-05-2019 04:40:00 6.9 C 7.24 g/m*3 6.9 C 0 km/h
346 02-05-2019 04:45:00 6.8 C 7.19 g/m*3 6.8 C 0 km/h
347 02-05-2019 04:50:00 6.8 C 7.19 g/m*3 6.8 C 0 km/h
348 02-05-2019 04:55:00 6.7 C 7.14 g/m*3 6.7 C 0 km/h
349 02-05-2019 05:00:00 6.6 C 7.1 g/m*3 6.6 C 0 km/h
350 02-05-2019 05:05:00 6.6 C 7.1 g/m*3 6.6 C 0 km/h
Sensor: Nr:Datum:Temp:Abs-Feuchte:Windchill:Wind:
Aussen-T/F 351 02-05-2019 05:10:00 6.6 C 7.1 g/m*3 6.6 C 0 km/h
352 02-05-2019 05:15:00 6.4 C 7 g/m*3 6.4 C 0 km/h
353 02-05-2019 05:20:00 6.4 C 7 g/m*3 6.4 C 0 km/h
354 02-05-2019 05:25:00 6.3 C 6.96 g/m*3 6.3 C 0 km/h
355 02-05-2019 05:30:00 6.3 C 6.96 g/m*3 6.3 C 0 km/h
356 02-05-2019 05:35:00 6.2 C 6.91 g/m*3 6.2 C 0 km/h
357 02-05-2019 05:40:00 6.2 C 6.99 g/m*3 6.2 C 0 km/h
358 02-05-2019 05:45:00 6.1 C 6.94 g/m*3 6.1 C 0 km/h
359 02-05-2019 05:50:00 6.1 C 6.87 g/m*3 6.1 C 0 km/h
360 02-05-2019 05:55:00 6.1 C 6.94 g/m*3 6.1 C 0 km/h
361 02-05-2019 06:00:00 6.1 C 6.94 g/m*3 6.1 C 0 km/h
362 02-05-2019 06:05:00 6 C 6.9 g/m*3 6 C 0 km/h
363 02-05-2019 06:10:00 5.9 C 6.85 g/m*3 5.9 C 0 km/h
364 02-05-2019 06:15:00 5.9 C 6.85 g/m*3 5.9 C 0 km/h
365 02-05-2019 06:20:00 5.8 C 6.81 g/m*3 5.8 C 0 km/h
366 02-05-2019 06:25:00 5.8 C 6.81 g/m*3 5.8 C 0 km/h
367 02-05-2019 06:30:00 5.8 C 6.81 g/m*3 5.8 C 0 km/h
368 02-05-2019 06:35:00 5.8 C 6.81 g/m*3 5.8 C 0 km/h
369 02-05-2019 06:40:00 5.8 C 6.81 g/m*3 5.8 C 0 km/h
370 02-05-2019 06:45:00 5.9 C 6.85 g/m*3 5.9 C 0 km/h
371 02-05-2019 06:50:00 5.9 C 6.85 g/m*3 5.9 C 0 km/h
372 02-05-2019 06:55:00 6 C 6.9 g/m*3 6 C 0 km/h
373 02-05-2019 07:00:00 6.1 C 7.01 g/m*3 6.1 C 0 km/h
374 02-05-2019 07:05:00 6.2 C 7.06 g/m*3 6.2 C 0 km/h
375 02-05-2019 07:10:00 6.4 C 7.15 g/m*3 6.4 C 0 km/h
Sensor: Nr:Datum:Temp:Abs-Feuchte:Windchill:Wind:
Aussen-T/F 376 02-05-2019 07:15:00 6.6 C 7.25 g/m*3 6.6 C 0 km/h
377 02-05-2019 07:20:00 6.7 C 7.29 g/m*3 6.7 C 0 km/h
378 02-05-2019 07:25:00 6.8 C 7.34 g/m*3 6.8 C 0 km/h
379 02-05-2019 07:30:00 6.9 C 7.39 g/m*3 6.9 C 0 km/h
380 02-05-2019 07:35:00 7.1 C 7.49 g/m*3 7.1 C 3.2 km/h
381 02-05-2019 07:40:00 7.1 C 7.49 g/m*3 7.1 C 1.6 km/h
382 02-05-2019 07:45:00 7.2 C 7.54 g/m*3 7.2 C 0 km/h
383 02-05-2019 07:50:00 7.4 C 7.63 g/m*3 7.4 C 3.2 km/h
384 02-05-2019 07:55:00 7.6 C 7.73 g/m*3 7.6 C 1.6 km/h
385 02-05-2019 08:00:00 7.7 C 7.78 g/m*3 7.7 C 1.6 km/h
386 02-05-2019 08:05:00 7.8 C 7.83 g/m*3 7.8 C 0 km/h
387 02-05-2019 08:10:00 7.9 C 7.89 g/m*3 7.9 C 3.2 km/h
388 02-05-2019 08:15:00 8.1 C 7.99 g/m*3 8.1 C 0 km/h
389 02-05-2019 08:20:00 8.3 C 8.09 g/m*3 8.3 C 0 km/h
390 02-05-2019 08:25:00 8.4 C 8.14 g/m*3 7.52 C 6.4 km/h
391 02-05-2019 08:30:00 8.6 C 8.25 g/m*3 8.6 C 3.2 km/h
392 02-05-2019 08:35:00 8.6 C 8.25 g/m*3 8.6 C 4.8 km/h
393 02-05-2019 08:40:00 8.7 C 8.3 g/m*3 8.7 C 1.6 km/h
394 02-05-2019 08:45:00 8.6 C 8.16 g/m*3 8.6 C 4.8 km/h
395 02-05-2019 08:50:00 8.6 C 8.16 g/m*3 8.6 C 0 km/h
396 02-05-2019 08:55:00 8.6 C 8.16 g/m*3 8.6 C 0 km/h
397 02-05-2019 09:00:00 8.7 C 8.22 g/m*3 8.7 C 0 km/h
398 02-05-2019 09:05:00 8.7 C 8.13 g/m*3 8.7 C 0 km/h
399 02-05-2019 09:10:00 8.8 C 8.27 g/m*3 8.8 C 0 km/h
400 02-05-2019 09:15:00 8.9 C 8.23 g/m*3 8.9 C 4.8 km/h
Sensor: Nr:Datum:Temp:Abs-Feuchte:Windchill:Wind:
Aussen-T/F 401 02-05-2019 09:20:00 8.9 C 8.15 g/m*3 8.9 C 4.8 km/h
402 02-05-2019 09:25:00 9 C 8.2 g/m*3 9 C 1.6 km/h
403 02-05-2019 09:30:00 9.1 C 8.16 g/m*3 9.1 C 1.6 km/h
404 02-05-2019 09:35:00 9.2 C 8.22 g/m*3 9.2 C 1.6 km/h
405 02-05-2019 09:40:00 9.2 C 8.13 g/m*3 9.2 C 1.6 km/h
406 02-05-2019 09:45:00 9.3 C 8.09 g/m*3 9.3 C 0 km/h
407 02-05-2019 09:50:00 9.4 C 8.14 g/m*3 9.4 C 1.6 km/h
408 02-05-2019 09:55:00 9.7 C 8.2 g/m*3 9.7 C 3.2 km/h
409 02-05-2019 10:00:00 9.9 C 8.22 g/m*3 9.9 C 1.6 km/h
410 02-05-2019 10:05:00 10.2 C 8.28 g/m*3 10.2 C 1.6 km/h
411 02-05-2019 10:10:00 10.3 C 8.14 g/m*3 10.3 C 3.2 km/h
412 02-05-2019 10:15:00 10.4 C 8.19 g/m*3 10.4 C 3.2 km/h
413 02-05-2019 10:20:00 10.6 C 8.1 g/m*3 10.6 C 1.6 km/h
414 02-05-2019 10:25:00 10.6 C 8 g/m*3 10.6 C 3.2 km/h
415 02-05-2019 10:30:00 10.8 C 8.01 g/m*3 10.29 C 6.4 km/h
416 02-05-2019 10:35:00 10.9 C 7.96 g/m*3 10.9 C 1.6 km/h
417 02-05-2019 10:40:00 11 C 8.21 g/m*3 10.52 C 6.4 km/h
418 02-05-2019 10:45:00 11.2 C 8.11 g/m*3 11.2 C 0 km/h
419 02-05-2019 10:50:00 11.3 C 8.06 g/m*3 11.3 C 3.2 km/h
420 02-05-2019 10:55:00 11.5 C 8.16 g/m*3 11.5 C 6.4 km/h
421 02-05-2019 11:00:00 11.7 C 8.16 g/m*3 11.7 C 6.4 km/h
422 02-05-2019 11:05:00 11.8 C 8.31 g/m*3 11.8 C 3.2 km/h
423 02-05-2019 11:10:00 11.9 C 8.15 g/m*3 11.9 C 8.1 km/h
424 02-05-2019 11:15:00 12.1 C 8.36 g/m*3 12.1 C 6.4 km/h
425 02-05-2019 11:20:00 12.2 C 8.31 g/m*3 12.2 C 4.8 km/h
Sensor: Nr:Datum:Temp:Abs-Feuchte:Windchill:Wind:
Aussen-T/F 426 02-05-2019 11:25:00 12.2 C 8.31 g/m*3 12.2 C 4.8 km/h
427 02-05-2019 11:30:00 12.3 C 8.14 g/m*3 12.3 C 4.8 km/h
428 02-05-2019 11:35:00 12.3 C 8.25 g/m*3 12.3 C 3.2 km/h
429 02-05-2019 11:40:00 12.3 C 8.25 g/m*3 12.3 C 4.8 km/h
430 02-05-2019 11:45:00 12.4 C 8.19 g/m*3 12.4 C 3.2 km/h
431 02-05-2019 11:50:00 12.3 C 8.14 g/m*3 12.3 C 8.1 km/h
432 02-05-2019 11:55:00 12.4 C 8.3 g/m*3 12.4 C 4.8 km/h
433 02-05-2019 12:00:00 12.4 C 8.19 g/m*3 12.4 C 6.4 km/h
434 02-05-2019 12:05:00 12.5 C 8.14 g/m*3 12.5 C 4.8 km/h
435 02-05-2019 12:10:00 12.5 C 8.25 g/m*3 12.5 C 4.8 km/h
436 02-05-2019 12:15:00 12.7 C 8.46 g/m*3 12.7 C 4.8 km/h
437 02-05-2019 12:20:00 12.8 C 8.29 g/m*3 12.8 C 3.2 km/h
438 02-05-2019 12:25:00 12.9 C 8.34 g/m*3 12.9 C 9.7 km/h
439 02-05-2019 12:30:00 12.9 C 8.34 g/m*3 12.9 C 9.7 km/h
440 02-05-2019 12:35:00 13 C 8.51 g/m*3 13 C 8.1 km/h
441 02-05-2019 12:40:00 13.2 C 8.5 g/m*3 13.2 C 9.7 km/h
442 02-05-2019 12:45:00 13.3 C 8.43 g/m*3 13.3 C 6.4 km/h
443 02-05-2019 12:50:00 13.4 C 8.37 g/m*3 13.4 C 8.1 km/h
444 02-05-2019 12:55:00 13.5 C 8.42 g/m*3 13.5 C 8.1 km/h
445 02-05-2019 13:00:00 13.5 C 8.3 g/m*3 13.5 C 8.1 km/h
446 02-05-2019 13:05:00 13.6 C 8.36 g/m*3 13.6 C 8.1 km/h
447 02-05-2019 13:10:00 13.7 C 8.53 g/m*3 13.7 C 4.8 km/h
448 02-05-2019 13:15:00 13.9 C 8.39 g/m*3 13.9 C 8.1 km/h
449 02-05-2019 13:20:00 14.1 C 8.5 g/m*3 14.1 C 6.4 km/h
450 02-05-2019 13:25:00 14.2 C 8.43 g/m*3 14.2 C 6.4 km/h
Sensor: Nr:Datum:Temp:Abs-Feuchte:Windchill:Wind:
Aussen-T/F 451 02-05-2019 13:30:00 14.3 C 8.48 g/m*3 14.3 C 11.3 km/h
452 02-05-2019 13:35:00 14.3 C 8.35 g/m*3 14.3 C 8.1 km/h
453 02-05-2019 13:40:00 14.3 C 8.48 g/m*3 14.3 C 8.1 km/h
454 02-05-2019 13:45:00 14.5 C 8.46 g/m*3 14.5 C 8.1 km/h
455 02-05-2019 13:50:00 14.6 C 8.51 g/m*3 14.6 C 6.4 km/h
456 02-05-2019 13:55:00 14.8 C 8.74 g/m*3 14.8 C 3.2 km/h
457 02-05-2019 14:00:00 14.9 C 8.67 g/m*3 14.9 C 4.8 km/h
458 02-05-2019 14:05:00 15.2 C 8.7 g/m*3 15.2 C 6.4 km/h
459 02-05-2019 14:10:00 15.3 C 8.62 g/m*3 15.3 C 4.8 km/h
460 02-05-2019 14:15:00 15.4 C 8.54 g/m*3 15.4 C 6.4 km/h
461 02-05-2019 14:20:00 15.6 C 8.64 g/m*3 15.6 C 8.1 km/h
462 02-05-2019 14:25:00 15.7 C 8.7 g/m*3 15.7 C 6.4 km/h
463 02-05-2019 14:30:00 15.8 C 8.75 g/m*3 15.8 C 6.4 km/h
464 02-05-2019 14:35:00 16 C 8.99 g/m*3 16 C 3.2 km/h
465 02-05-2019 14:40:00 16.3 C 9.16 g/m*3 16.3 C 9.7 km/h
466 02-05-2019 14:45:00 16.6 C 9.04 g/m*3 16.6 C 12.9 km/h
467 02-05-2019 14:50:00 16.7 C 8.81 g/m*3 16.7 C 8.1 km/h
468 02-05-2019 14:55:00 16.7 C 9.1 g/m*3 16.7 C 6.4 km/h
469 02-05-2019 15:00:00 16.7 C 8.81 g/m*3 16.7 C 11.3 km/h
470 02-05-2019 15:05:00 16.7 C 8.81 g/m*3 16.7 C 8.1 km/h
471 02-05-2019 15:10:00 16.7 C 9.1 g/m*3 16.7 C 6.4 km/h
472 02-05-2019 15:15:00 16.6 C 8.76 g/m*3 16.6 C 12.9 km/h
473 02-05-2019 15:20:00 16.4 C 8.51 g/m*3 16.4 C 8.1 km/h
474 02-05-2019 15:25:00 16.3 C 8.6 g/m*3 16.3 C 11.3 km/h
475 02-05-2019 15:30:00 16.4 C 8.65 g/m*3 16.4 C 8.1 km/h
Sensor: Nr:Datum:Temp:Abs-Feuchte:Windchill:Wind:
Aussen-T/F 476 02-05-2019 15:35:00 16.4 C 8.51 g/m*3 16.4 C 9.7 km/h
477 02-05-2019 15:40:00 16.7 C 8.53 g/m*3 16.7 C 8.1 km/h
478 02-05-2019 15:45:00 16.8 C 8.58 g/m*3 16.8 C 11.3 km/h
479 02-05-2019 15:50:00 16.7 C 8.38 g/m*3 16.7 C 12.9 km/h
480 02-05-2019 15:55:00 16.6 C 8.19 g/m*3 16.6 C 8.1 km/h
481 02-05-2019 16:00:00 16.5 C 8.28 g/m*3 16.5 C 8.1 km/h
482 02-05-2019 16:05:00 16.6 C 8.48 g/m*3 16.6 C 6.4 km/h
483 02-05-2019 16:10:00 16.7 C 8.53 g/m*3 16.7 C 6.4 km/h
484 02-05-2019 16:15:00 16.8 C 8.29 g/m*3 16.8 C 8.1 km/h
485 02-05-2019 16:20:00 16.9 C 8.49 g/m*3 16.9 C 4.8 km/h
486 02-05-2019 16:25:00 17.1 C 8.59 g/m*3 17.1 C 4.8 km/h
487 02-05-2019 16:30:00 17.4 C 8.74 g/m*3 17.4 C 8.1 km/h
488 02-05-2019 16:35:00 18.1 C 8.96 g/m*3 18.1 C 9.7 km/h
489 02-05-2019 16:40:00 18.3 C 8.6 g/m*3 18.3 C 17.7 km/h
490 02-05-2019 16:45:00 18 C 8.91 g/m*3 18 C 9.7 km/h
491 02-05-2019 16:50:00 17.2 C 8.05 g/m*3 17.2 C 12.9 km/h
492 02-05-2019 16:55:00 17.1 C 8.15 g/m*3 17.1 C 9.7 km/h
493 02-05-2019 17:00:00 17.4 C 8.15 g/m*3 17.4 C 8.1 km/h
494 02-05-2019 17:05:00 17.6 C 8.1 g/m*3 17.6 C 8.1 km/h
495 02-05-2019 17:10:00 17.6 C 7.8 g/m*3 17.6 C 9.7 km/h
496 02-05-2019 17:15:00 17.4 C 7.71 g/m*3 17.4 C 9.7 km/h
497 02-05-2019 17:20:00 17.3 C 7.96 g/m*3 17.3 C 8.1 km/h
498 02-05-2019 17:25:00 17.6 C 8.1 g/m*3 17.6 C 11.3 km/h
499 02-05-2019 17:30:00 17.7 C 7.85 g/m*3 17.7 C 9.7 km/h
500 02-05-2019 17:35:00 17.6 C 7.65 g/m*3 17.6 C 6.4 km/h
Sensor: Nr:Datum:Temp:Abs-Feuchte:Windchill:Wind:
Aussen-T/F 501 02-05-2019 17:40:00 17.7 C 7.69 g/m*3 17.7 C 6.4 km/h
502 02-05-2019 17:45:00 18.1 C 7.73 g/m*3 18.1 C 9.7 km/h
503 02-05-2019 17:50:00 18.4 C 7.39 g/m*3 18.4 C 12.9 km/h
504 02-05-2019 17:55:00 18.6 C 7.32 g/m*3 18.6 C 11.3 km/h
505 02-05-2019 18:00:00 18.4 C 7.39 g/m*3 18.4 C 9.7 km/h
506 02-05-2019 18:05:00 18.5 C 7.28 g/m*3 18.5 C 9.7 km/h
507 02-05-2019 18:10:00 18.4 C 7.24 g/m*3 18.4 C 12.9 km/h
508 02-05-2019 18:15:00 18.4 C 7.24 g/m*3 18.4 C 11.3 km/h
509 02-05-2019 18:20:00 18.3 C 7.35 g/m*3 18.3 C 8.1 km/h
510 02-05-2019 18:25:00 18.1 C 7.11 g/m*3 18.1 C 11.3 km/h
511 02-05-2019 18:30:00 17.8 C 7.13 g/m*3 17.8 C 9.7 km/h
512 02-05-2019 18:35:00 17.7 C 7.09 g/m*3 17.7 C 8.1 km/h
513 02-05-2019 18:40:00 17.6 C 7.2 g/m*3 17.6 C 8.1 km/h
514 02-05-2019 18:45:00 17.5 C 7.16 g/m*3 17.5 C 9.7 km/h
515 02-05-2019 18:50:00 17.5 C 7.01 g/m*3 17.5 C 6.4 km/h
516 02-05-2019 18:55:00 17.4 C 6.97 g/m*3 17.4 C 8.1 km/h
517 02-05-2019 19:00:00 17.3 C 7.07 g/m*3 17.3 C 9.7 km/h
518 02-05-2019 19:05:00 17 C 6.95 g/m*3 17 C 12.9 km/h
519 02-05-2019 19:10:00 16.7 C 7.11 g/m*3 16.7 C 8.1 km/h
520 02-05-2019 19:15:00 16.4 C 7.82 g/m*3 16.4 C 16.1 km/h
521 02-05-2019 19:20:00 15.9 C 8.13 g/m*3 15.9 C 16.1 km/h
522 02-05-2019 19:25:00 15.4 C 8.28 g/m*3 15.4 C 17.7 km/h
523 02-05-2019 19:30:00 15.1 C 8.39 g/m*3 15.1 C 9.7 km/h
524 02-05-2019 19:35:00 14.9 C 8.41 g/m*3 14.9 C 9.7 km/h
525 02-05-2019 19:40:00 14.7 C 8.31 g/m*3 14.7 C 12.9 km/h
Sensor: Nr:Datum:Temp:Abs-Feuchte:Windchill:Wind:
Aussen-T/F 526 02-05-2019 19:45:00 14.6 C 8.26 g/m*3 14.6 C 14.5 km/h
527 02-05-2019 19:50:00 14.4 C 8.28 g/m*3 14.4 C 14.5 km/h
528 02-05-2019 19:55:00 14.1 C 8.25 g/m*3 14.1 C 12.9 km/h
529 02-05-2019 20:00:00 13.8 C 8.22 g/m*3 13.8 C 12.9 km/h
530 02-05-2019 20:05:00 13.5 C 8.3 g/m*3 13.5 C 16.1 km/h
531 02-05-2019 20:10:00 13.3 C 8.55 g/m*3 13.3 C 9.7 km/h
532 02-05-2019 20:15:00 13.1 C 8.56 g/m*3 13.1 C 6.4 km/h
533 02-05-2019 20:20:00 12.9 C 8.57 g/m*3 12.9 C 12.9 km/h
534 02-05-2019 20:25:00 12.7 C 8.57 g/m*3 12.7 C 6.4 km/h
535 02-05-2019 20:30:00 12.6 C 8.63 g/m*3 12.6 C 3.2 km/h
536 02-05-2019 20:35:00 12.5 C 8.69 g/m*3 12.5 C 4.8 km/h
537 02-05-2019 20:40:00 12.4 C 8.74 g/m*3 12.4 C 6.4 km/h
538 02-05-2019 20:45:00 12.3 C 8.8 g/m*3 12.3 C 4.8 km/h
539 02-05-2019 20:50:00 12.2 C 8.74 g/m*3 12.2 C 3.2 km/h
540 02-05-2019 20:55:00 12.1 C 8.79 g/m*3 12.1 C 11.3 km/h
541 02-05-2019 21:00:00 12 C 8.85 g/m*3 12 C 0 km/h
542 02-05-2019 21:05:00 11.9 C 9 g/m*3 11.9 C 0 km/h
543 02-05-2019 21:10:00 11.8 C 9.16 g/m*3 11.8 C 0 km/h
544 02-05-2019 21:15:00 11.7 C 9.2 g/m*3 11.7 C 0 km/h
545 02-05-2019 21:20:00 11.6 C 9.15 g/m*3 11.6 C 0 km/h
546 02-05-2019 21:25:00 11.4 C 9.14 g/m*3 11.4 C 0 km/h
547 02-05-2019 21:30:00 11.3 C 9.08 g/m*3 11.3 C 1.6 km/h
548 02-05-2019 21:35:00 11.2 C 9.12 g/m*3 11.2 C 1.6 km/h
549 02-05-2019 21:40:00 11.2 C 9.12 g/m*3 11.2 C 0 km/h
550 02-05-2019 21:45:00 11.1 C 9.17 g/m*3 11.1 C 1.6 km/h
Sensor: Nr:Datum:Temp:Abs-Feuchte:Windchill:Wind:
Aussen-T/F 551 02-05-2019 21:50:00 11.1 C 9.17 g/m*3 11.1 C 0 km/h
552 02-05-2019 21:55:00 11 C 9.11 g/m*3 11 C 0 km/h
553 02-05-2019 22:00:00 10.9 C 9.05 g/m*3 10.9 C 3.2 km/h
554 02-05-2019 22:05:00 10.8 C 8.9 g/m*3 10.8 C 3.2 km/h
555 02-05-2019 22:10:00 10.8 C 8.99 g/m*3 10.8 C 3.2 km/h
556 02-05-2019 22:15:00 10.8 C 8.99 g/m*3 10.8 C 4.8 km/h
557 02-05-2019 22:20:00 10.8 C 8.99 g/m*3 10.8 C 0 km/h
558 02-05-2019 22:25:00 10.8 C 8.99 g/m*3 10.8 C 4.8 km/h
559 02-05-2019 22:30:00 10.7 C 8.94 g/m*3 10.7 C 0 km/h
560 02-05-2019 22:35:00 10.7 C 8.94 g/m*3 10.7 C 1.6 km/h
561 02-05-2019 22:40:00 10.7 C 8.94 g/m*3 10.7 C 0 km/h
562 02-05-2019 22:45:00 10.7 C 8.94 g/m*3 10.7 C 4.8 km/h
563 02-05-2019 22:50:00 10.7 C 8.94 g/m*3 10.7 C 4.8 km/h
564 02-05-2019 22:55:00 10.7 C 8.94 g/m*3 10.7 C 4.8 km/h
565 02-05-2019 23:00:00 10.7 C 8.94 g/m*3 10.7 C 1.6 km/h
566 02-05-2019 23:05:00 10.7 C 8.94 g/m*3 10.7 C 0 km/h
567 02-05-2019 23:10:00 10.7 C 8.94 g/m*3 10.7 C 3.2 km/h
568 02-05-2019 23:15:00 10.7 C 8.94 g/m*3 10.7 C 0 km/h
569 02-05-2019 23:20:00 10.7 C 9.04 g/m*3 10.7 C 0 km/h
570 02-05-2019 23:25:00 10.7 C 9.04 g/m*3 10.7 C 0 km/h
571 02-05-2019 23:30:00 10.7 C 9.04 g/m*3 10.7 C 0 km/h
572 02-05-2019 23:35:00 10.7 C 9.04 g/m*3 10.7 C 0 km/h
573 02-05-2019 23:40:00 10.7 C 9.04 g/m*3 10.7 C 0 km/h
574 02-05-2019 23:45:00 10.7 C 9.04 g/m*3 10.7 C 1.6 km/h
575 02-05-2019 23:50:00 10.7 C 9.04 g/m*3 10.7 C 0 km/h
Sensor: Nr:Datum:Temp:Abs-Feuchte:Windchill:Wind:
Aussen-T/F 576 02-05-2019 23:55:00 10.7 C 9.13 g/m*3 10.7 C 0 km/h

Legende:
   Min
   Max


Maximal/Minimal-Werte vom 01.05.2019 - 02.05.2019

Sensor Min Max Avg
Temp
(Aussen-T/F)
5.8 °C
02-05-2019  06:20:00
21.8 °C
01-05-2019  16:40:00
12.12 °C
Abs-Feuchte
(Aussen-T/F)
6.81 g/m*3
02-05-2019  06:20:00
9.62 g/m*3
01-05-2019  13:00:00
8.16 g/m*3
Windchill
(Aussen-T/F)
5.8 C
02-05-2019  06:20:00
21.8 C
01-05-2019  16:40:00
12.09 C

Die Daten stammen von einer Davis Vantage Pro 2 Wetter-Station und werden unter Linux mit der Software wview2wettercgi und aufbereitet. Alle Angaben erfolgen ohne Gewähr für ihre Vollständigkeit oder Richtigkeit.
Kontakt: Rainer Krienke krienke@uni-koblenz.de . Meine Webseiten an der Uni Koblenz oder privat.
Version: $Revision: 0.78 $